createdAt,value
2023-02-11T00:01:33.169Z,16.80
2023-02-11T00:04:02.246Z,16.70
2023-02-11T00:06:31.949Z,16.40
2023-02-11T00:09:00.877Z,16.10
2023-02-11T00:11:30.705Z,15.80
2023-02-11T00:14:07.924Z,15.70
2023-02-11T00:16:36.377Z,15.50
2023-02-11T00:19:06.572Z,16.00
2023-02-11T00:21:35.604Z,15.40
2023-02-11T00:24:04.167Z,15.10
2023-02-11T00:26:35.443Z,15.30
2023-02-11T00:29:04.698Z,13.80
2023-02-11T00:31:33.753Z,14.50
2023-02-11T00:34:02.557Z,14.00
2023-02-11T00:36:31.305Z,14.50
2023-02-11T00:39:00.266Z,15.00
2023-02-11T00:41:28.956Z,14.50
2023-02-11T00:43:57.221Z,14.90
2023-02-11T00:46:25.587Z,14.80
2023-02-11T00:48:58.026Z,14.50
2023-02-11T00:51:28.367Z,14.60
2023-02-11T00:53:56.893Z,14.60
2023-02-11T00:56:25.844Z,14.50
2023-02-11T00:58:54.324Z,13.90
2023-02-11T01:01:22.993Z,14.10
2023-02-11T01:03:51.702Z,13.70
2023-02-11T01:06:19.900Z,15.10
2023-02-11T01:08:48.184Z,14.60
2023-02-11T01:11:19.621Z,14.80
2023-02-11T01:13:49.796Z,15.90
2023-02-11T01:16:19.703Z,14.30
2023-02-11T01:18:48.009Z,14.10
2023-02-11T01:21:16.781Z,15.00
2023-02-11T01:23:45.251Z,14.50
2023-02-11T01:26:14.102Z,15.50
2023-02-11T01:28:42.532Z,14.90
2023-02-11T01:31:11.155Z,15.50
2023-02-11T01:33:39.686Z,15.40
2023-02-11T01:36:09.026Z,14.40
2023-02-11T01:38:37.825Z,15.20
2023-02-11T01:41:09.915Z,15.40
2023-02-11T01:43:50.009Z,15.30
2023-02-11T01:48:55.612Z,14.60
2023-02-11T01:51:33.058Z,14.10
2023-02-11T01:54:21.808Z,15.40
2023-02-11T01:57:12.395Z,15.70
2023-02-11T01:59:52.354Z,15.90
2023-02-11T02:02:30.908Z,14.80
2023-02-11T02:05:29.132Z,15.90
2023-02-11T02:08:17.891Z,15.20
2023-02-11T02:10:48.566Z,16.10
2023-02-11T02:13:17.658Z,16.90
2023-02-11T02:16:01.700Z,16.60
2023-02-11T02:18:44.976Z,14.40
2023-02-11T02:21:43.818Z,16.20
2023-02-11T02:24:23.904Z,16.20
2023-02-11T02:29:38.844Z,15.50
2023-02-11T02:32:28.540Z,16.00
2023-02-11T02:35:26.035Z,16.80
2023-02-11T02:38:00.224Z,17.10
2023-02-11T02:40:37.237Z,17.50
2023-02-11T02:43:07.083Z,17.00
2023-02-11T02:45:35.359Z,17.10
2023-02-11T02:48:03.684Z,17.80
2023-02-11T02:50:35.705Z,17.80
2023-02-11T02:53:42.074Z,18.60
2023-02-11T02:56:15.176Z,17.20
2023-02-11T02:58:52.440Z,17.60
2023-02-11T03:01:27.143Z,17.80
2023-02-11T03:04:13.952Z,18.00
2023-02-11T03:07:09.368Z,18.40
2023-02-11T03:09:55.236Z,18.30
2023-02-11T03:12:25.098Z,18.40
2023-02-11T03:17:23.982Z,17.10
2023-02-11T03:19:52.407Z,18.00
2023-02-11T03:22:30.671Z,17.70
2023-02-11T03:25:00.844Z,18.50
2023-02-11T03:27:39.680Z,18.80
2023-02-11T03:30:16.900Z,18.20
2023-02-11T03:32:56.574Z,17.70
2023-02-11T03:35:33.469Z,18.20
2023-02-11T03:38:20.911Z,18.70
2023-02-11T03:40:51.538Z,18.50
2023-02-11T03:43:24.281Z,17.70
2023-02-11T03:45:55.569Z,19.60
2023-02-11T03:48:32.133Z,19.20
2023-02-11T03:51:03.166Z,19.50
2023-02-11T03:53:31.525Z,18.90
2023-02-11T03:56:03.482Z,18.90
2023-02-11T03:58:31.902Z,20.30
2023-02-11T04:01:02.708Z,19.10
2023-02-11T04:03:33.225Z,19.20
2023-02-11T04:06:01.541Z,18.10
2023-02-11T04:08:30.152Z,18.10
2023-02-11T04:10:58.529Z,18.50
2023-02-11T04:13:27.460Z,20.40
2023-02-11T04:15:55.691Z,20.40
2023-02-11T04:18:23.947Z,19.50
2023-02-11T04:20:52.243Z,18.50
2023-02-11T04:23:20.943Z,20.60
2023-02-11T04:25:51.751Z,19.30
2023-02-11T04:28:20.363Z,20.60
2023-02-11T04:30:51.226Z,20.60
2023-02-11T04:33:19.467Z,20.40
2023-02-11T04:35:48.128Z,20.70
2023-02-11T04:38:17.213Z,19.90
2023-02-11T04:40:45.484Z,19.40
2023-02-11T04:43:13.666Z,21.40
2023-02-11T04:45:42.068Z,20.60
2023-02-11T04:48:10.281Z,21.90
2023-02-11T04:50:38.526Z,21.90
2023-02-11T04:53:06.821Z,22.50
2023-02-11T04:55:35.177Z,21.10
2023-02-11T04:58:03.392Z,20.40
2023-02-11T05:00:31.683Z,21.20
2023-02-11T05:02:59.880Z,21.20
2023-02-11T05:05:28.380Z,22.80
2023-02-11T05:07:57.604Z,21.30
2023-02-11T05:10:25.828Z,20.40
2023-02-11T05:12:55.877Z,21.40
2023-02-11T05:15:24.572Z,21.20
2023-02-11T05:17:53.654Z,20.00
2023-02-11T05:20:22.113Z,22.10
2023-02-11T05:22:50.476Z,21.50
2023-02-11T05:25:19.023Z,22.30
2023-02-11T05:27:47.208Z,20.90
2023-02-11T05:30:15.538Z,22.80
2023-02-11T05:32:43.787Z,21.40
2023-02-11T05:35:12.119Z,22.10
2023-02-11T05:37:40.495Z,22.40
2023-02-11T05:40:09.363Z,23.80
2023-02-11T05:42:37.643Z,23.10
2023-02-11T05:45:06.372Z,23.20
2023-02-11T05:47:34.553Z,23.90
2023-02-11T05:50:02.825Z,22.90
2023-02-11T05:52:31.155Z,22.90
2023-02-11T05:54:59.326Z,23.90
2023-02-11T05:57:27.567Z,23.50
2023-02-11T05:59:55.774Z,22.60
2023-02-11T06:02:24.451Z,22.20
2023-02-11T06:04:52.903Z,24.10
2023-02-11T06:07:21.208Z,22.90
2023-02-11T06:09:49.491Z,23.00
2023-02-11T06:12:17.719Z,24.10
2023-02-11T06:14:45.961Z,23.00
2023-02-11T06:17:15.741Z,22.30
2023-02-11T06:22:12.323Z,22.60
2023-02-11T06:24:58.909Z,23.30
2023-02-11T06:27:29.230Z,23.40
2023-02-11T06:29:57.587Z,22.90
2023-02-11T06:32:43.254Z,24.00
2023-02-11T06:35:14.635Z,23.80
2023-02-11T06:37:43.334Z,23.40
2023-02-11T06:40:12.378Z,22.80
2023-02-11T06:42:40.735Z,25.50
2023-02-11T06:45:11.116Z,24.90
2023-02-11T06:47:43.239Z,24.10
2023-02-11T06:50:14.759Z,24.00
2023-02-11T06:52:43.154Z,24.70
2023-02-11T06:55:11.517Z,23.80
2023-02-11T06:57:39.751Z,24.70
2023-02-11T07:00:09.184Z,25.20
2023-02-11T07:02:37.721Z,24.60
2023-02-11T07:05:08.248Z,22.70
2023-02-11T07:07:37.469Z,24.40
2023-02-11T07:10:07.082Z,24.50
2023-02-11T07:12:35.554Z,24.50
2023-02-11T07:15:04.197Z,24.80
2023-02-11T07:17:34.320Z,25.90
2023-02-11T07:22:31.017Z,25.50
2023-02-11T07:24:59.297Z,24.90
2023-02-11T07:27:27.494Z,25.50
2023-02-11T07:29:55.693Z,26.60
2023-02-11T07:32:23.995Z,25.10
2023-02-11T07:34:52.319Z,25.00
2023-02-11T07:37:20.560Z,24.60
2023-02-11T07:39:48.899Z,24.40
2023-02-11T07:42:17.075Z,25.60
2023-02-11T07:44:49.248Z,24.30
2023-02-11T07:47:18.787Z,24.20
2023-02-11T07:49:47.876Z,23.90
2023-02-11T07:52:16.075Z,23.50
2023-02-11T07:54:44.399Z,22.70
2023-02-11T07:57:12.636Z,23.00
2023-02-11T07:59:40.818Z,21.90
2023-02-11T08:02:09.726Z,23.70
2023-02-11T08:04:38.431Z,22.00
2023-02-11T08:07:07.038Z,21.20
2023-02-11T08:09:35.483Z,21.00
2023-02-11T08:12:04.022Z,22.50
2023-02-11T08:14:33.009Z,22.40
2023-02-11T08:17:01.307Z,19.10
2023-02-11T08:19:29.606Z,20.80
2023-02-11T08:21:59.888Z,21.60
2023-02-11T08:24:28.289Z,20.90
2023-02-11T08:26:56.559Z,21.90
2023-02-11T08:29:24.747Z,20.30
2023-02-11T08:31:53.139Z,20.30
2023-02-11T08:34:22.293Z,20.60
2023-02-11T08:36:50.712Z,18.50
2023-02-11T08:39:21.737Z,20.60
2023-02-11T08:41:56.806Z,20.10
2023-02-11T08:44:26.531Z,20.70
2023-02-11T08:46:54.824Z,19.80
2023-02-11T08:49:23.367Z,19.10
2023-02-11T08:51:52.276Z,19.70
2023-02-11T08:54:20.466Z,19.70
2023-02-11T08:56:51.329Z,18.70
2023-02-11T08:59:19.626Z,18.90
2023-02-11T09:01:47.921Z,18.10
2023-02-11T09:04:16.309Z,18.70
2023-02-11T09:06:44.671Z,17.70
2023-02-11T09:09:15.100Z,17.60
2023-02-11T09:11:44.719Z,16.40
2023-02-11T09:14:22.124Z,16.50
2023-02-11T09:16:51.998Z,17.70
2023-02-11T09:19:21.488Z,16.30
2023-02-11T09:21:50.560Z,17.90
2023-02-11T09:24:19.641Z,14.70
2023-02-11T09:26:48.101Z,15.60
2023-02-11T09:29:16.408Z,16.20
2023-02-11T09:31:44.830Z,15.00
2023-02-11T09:34:13.461Z,14.30
2023-02-11T09:36:42.493Z,14.50
2023-02-11T09:39:17.278Z,15.50
2023-02-11T09:42:10.361Z,15.00
2023-02-11T09:44:39.820Z,14.20
2023-02-11T09:47:24.756Z,14.80
2023-02-11T09:50:22.000Z,15.00
2023-02-11T09:53:04.928Z,15.90
2023-02-11T09:55:43.384Z,14.80
2023-02-11T09:58:19.331Z,13.90
2023-02-11T10:00:55.132Z,15.20
2023-02-11T10:03:56.816Z,12.80
2023-02-11T10:06:28.129Z,11.80
2023-02-11T10:08:56.548Z,11.60
2023-02-11T10:11:41.944Z,11.30
2023-02-11T10:14:16.131Z,9.10
2023-02-11T10:17:04.683Z,9.00
2023-02-11T10:20:04.800Z,9.00
2023-02-11T10:25:36.665Z,8.40
2023-02-11T10:28:18.397Z,8.20
2023-02-11T10:30:56.694Z,7.60
2023-02-11T10:33:34.600Z,6.70
2023-02-11T10:36:05.133Z,7.00
2023-02-11T10:38:34.143Z,6.80
2023-02-11T10:41:02.393Z,7.00
2023-02-11T10:43:32.821Z,8.50
2023-02-11T10:46:05.069Z,7.20
2023-02-11T10:48:50.764Z,7.30
2023-02-11T10:51:37.891Z,7.60
2023-02-11T10:54:13.303Z,6.90
2023-02-11T10:56:59.054Z,8.10
2023-02-11T10:59:33.455Z,7.80
2023-02-11T11:02:21.301Z,8.70
2023-02-11T11:04:49.794Z,7.10
2023-02-11T11:07:22.904Z,7.00
2023-02-11T11:09:53.920Z,6.60
2023-02-11T11:12:31.180Z,7.00
2023-02-11T11:15:03.002Z,6.60
2023-02-11T11:17:31.371Z,6.60
2023-02-11T11:20:16.805Z,6.50
2023-02-11T11:22:45.751Z,6.20
2023-02-11T11:25:29.714Z,6.50
2023-02-11T11:28:00.893Z,6.50
2023-02-11T11:30:39.905Z,6.00
2023-02-11T11:33:23.016Z,6.20
2023-02-11T11:36:06.749Z,5.80
2023-02-11T11:38:37.799Z,6.00
2023-02-11T11:41:26.090Z,5.80
2023-02-11T11:44:04.400Z,5.10
2023-02-11T11:46:36.692Z,5.60
2023-02-11T11:49:12.833Z,5.20
2023-02-11T11:51:45.657Z,4.90
2023-02-11T11:54:17.927Z,5.20
2023-02-11T11:57:03.467Z,3.80
2023-02-11T11:59:32.758Z,4.70
2023-02-11T12:02:32.199Z,4.10
2023-02-11T12:05:19.106Z,4.00
2023-02-11T12:08:08.272Z,3.50
2023-02-11T12:10:45.849Z,3.50
2023-02-11T12:13:29.766Z,3.10
2023-02-11T12:16:10.433Z,3.00
2023-02-11T12:19:00.387Z,2.60
2023-02-11T12:24:33.670Z,3.00
2023-02-11T12:27:05.903Z,2.60
2023-02-11T12:29:53.556Z,2.70
2023-02-11T12:32:36.661Z,2.90
2023-02-11T12:35:26.866Z,2.40
2023-02-11T12:38:20.044Z,2.60
2023-02-11T12:41:45.537Z,2.10
2023-02-11T12:44:31.361Z,3.00
2023-02-11T12:47:08.498Z,2.60
2023-02-11T12:50:05.989Z,2.50
2023-02-11T12:52:52.463Z,2.20
2023-02-11T12:55:25.991Z,2.70
2023-02-11T12:57:59.565Z,2.80
2023-02-11T13:01:12.786Z,2.70
2023-02-11T13:03:47.479Z,3.40
2023-02-11T13:06:21.800Z,3.10
2023-02-11T13:08:56.217Z,4.10
2023-02-11T13:11:42.850Z,4.80
2023-02-11T13:14:26.048Z,3.00
2023-02-11T13:16:55.633Z,3.90
2023-02-11T13:19:48.782Z,3.70
2023-02-11T13:22:28.780Z,6.60
2023-02-11T13:27:58.723Z,13.90
2023-02-11T13:30:32.927Z,17.00
2023-02-11T13:33:01.245Z,4.60
2023-02-11T13:35:37.038Z,3.60
2023-02-11T13:38:30.219Z,3.70
2023-02-11T13:41:04.661Z,2.70
2023-02-11T13:43:35.350Z,3.10
2023-02-11T13:46:08.056Z,2.90
2023-02-11T13:48:46.739Z,2.60
2023-02-11T13:51:34.942Z,2.50
2023-02-11T13:54:05.621Z,2.90
2023-02-11T13:56:39.809Z,2.20
2023-02-11T13:59:44.554Z,2.90
2023-02-11T14:02:52.736Z,3.30
2023-02-11T14:05:43.050Z,3.00
2023-02-11T14:11:12.714Z,3.40
2023-02-11T14:13:53.144Z,3.40
2023-02-11T14:16:36.767Z,3.80
2023-02-11T14:19:06.836Z,2.70
2023-02-11T14:21:41.022Z,2.80
2023-02-11T14:24:13.272Z,3.30
2023-02-11T14:26:53.316Z,2.90
2023-02-11T14:29:24.766Z,2.60
2023-02-11T14:32:27.650Z,3.20
2023-02-11T14:35:15.486Z,5.80
2023-02-11T14:37:52.580Z,5.80
2023-02-11T14:40:34.875Z,3.80
2023-02-11T14:43:21.381Z,6.00
2023-02-11T14:45:56.927Z,4.30
2023-02-11T14:48:35.641Z,3.70
2023-02-11T14:51:10.772Z,5.20
2023-02-11T14:53:44.607Z,4.20
2023-02-11T14:56:26.627Z,3.50
2023-02-11T14:58:55.694Z,5.30
2023-02-11T15:01:34.189Z,18.50
2023-02-11T15:04:05.712Z,7.70
2023-02-11T15:06:40.887Z,3.40
2023-02-11T15:09:21.533Z,2.90
2023-02-11T15:11:51.374Z,3.10
2023-02-11T15:17:02.676Z,2.90
2023-02-11T15:19:41.821Z,2.50
2023-02-11T15:22:37.546Z,2.80
2023-02-11T15:25:17.353Z,3.40
2023-02-11T15:27:49.866Z,1.70
2023-02-11T15:30:25.149Z,2.40
2023-02-11T15:33:00.244Z,3.00
2023-02-11T15:35:35.325Z,3.50
2023-02-11T15:38:04.731Z,4.70
2023-02-11T15:40:36.378Z,5.30
2023-02-11T15:43:10.198Z,3.90
2023-02-11T15:45:53.609Z,5.00
2023-02-11T15:48:33.244Z,3.80
2023-02-11T15:51:20.880Z,6.10
2023-02-11T15:53:53.554Z,4.80
2023-02-11T15:56:30.880Z,5.20
2023-02-11T15:59:09.449Z,3.70
2023-02-11T16:01:39.896Z,3.40
2023-02-11T16:04:23.621Z,3.40
2023-02-11T16:06:54.448Z,3.40
2023-02-11T16:09:35.424Z,4.60
2023-02-11T16:12:23.061Z,3.80
2023-02-11T16:14:51.231Z,3.80
2023-02-11T16:17:19.473Z,3.20
2023-02-11T16:19:50.999Z,3.30
2023-02-11T16:22:24.597Z,2.90
2023-02-11T16:24:55.407Z,2.80
2023-02-11T16:27:41.864Z,3.30
2023-02-11T16:30:40.801Z,3.40
2023-02-11T16:33:11.952Z,3.50
2023-02-11T16:35:40.803Z,3.10
2023-02-11T16:38:08.993Z,2.70
2023-02-11T16:40:37.660Z,2.70
2023-02-11T16:43:06.340Z,4.20
2023-02-11T16:45:38.980Z,12.60
2023-02-11T16:48:09.649Z,20.70
2023-02-11T16:50:38.328Z,32.30
2023-02-11T16:53:06.926Z,15.90
2023-02-11T16:55:35.396Z,21.10
2023-02-11T16:58:03.767Z,19.10
2023-02-11T17:00:32.073Z,18.60
2023-02-11T17:03:00.724Z,7.20
2023-02-11T17:05:29.205Z,8.60
2023-02-11T17:07:57.682Z,12.20
2023-02-11T17:10:26.293Z,9.40
2023-02-11T17:12:54.569Z,8.50
2023-02-11T17:15:22.924Z,6.80
2023-02-11T17:17:52.001Z,5.60
2023-02-11T17:20:20.856Z,5.00
2023-02-11T17:22:50.409Z,5.00
2023-02-11T17:25:18.790Z,4.10
2023-02-11T17:27:47.069Z,4.10
2023-02-11T17:30:15.571Z,4.40
2023-02-11T17:32:43.900Z,4.10
2023-02-11T17:35:12.929Z,3.90
2023-02-11T17:37:41.096Z,4.10
2023-02-11T17:40:10.392Z,4.40
2023-02-11T17:42:38.860Z,3.70
2023-02-11T17:45:08.926Z,3.90
2023-02-11T17:50:05.889Z,3.20
2023-02-11T17:52:34.226Z,3.60
2023-02-11T17:55:02.443Z,3.40
2023-02-11T17:57:31.166Z,3.10
2023-02-11T17:59:59.435Z,3.60
2023-02-11T18:02:27.833Z,4.10
2023-02-11T18:04:57.894Z,4.10
2023-02-11T18:07:26.985Z,4.00
2023-02-11T18:09:55.238Z,3.80
2023-02-11T18:12:26.475Z,3.00
2023-02-11T18:14:57.556Z,3.00
2023-02-11T18:17:26.665Z,3.10
2023-02-11T18:19:58.319Z,3.10
2023-02-11T18:22:27.533Z,3.80
2023-02-11T18:24:55.855Z,3.90
2023-02-11T18:27:24.072Z,4.10
2023-02-11T18:29:52.443Z,4.00
2023-02-11T18:32:20.768Z,4.10
2023-02-11T18:34:49.071Z,4.00
2023-02-11T18:37:17.345Z,3.70
2023-02-11T18:39:45.630Z,3.50
2023-02-11T18:42:13.854Z,4.00
2023-02-11T18:44:42.300Z,3.90
2023-02-11T18:47:10.591Z,3.40
2023-02-11T18:49:38.857Z,3.70
2023-02-11T18:52:07.084Z,3.70
2023-02-11T18:54:35.430Z,3.80
2023-02-11T18:57:03.754Z,4.10
2023-02-11T18:59:32.005Z,3.50
2023-02-11T19:02:00.403Z,4.10
2023-02-11T19:04:28.687Z,3.60
2023-02-11T19:06:57.024Z,3.20
2023-02-11T19:09:25.341Z,3.80
2023-02-11T19:11:58.090Z,3.70
2023-02-11T19:14:32.375Z,3.80
2023-02-11T19:17:06.483Z,3.20
2023-02-11T19:19:36.551Z,3.70
2023-02-11T19:24:39.550Z,3.60
2023-02-11T19:27:07.728Z,3.10
2023-02-11T19:29:36.001Z,3.10
2023-02-11T19:32:06.374Z,4.10
2023-02-11T19:34:41.249Z,3.00
2023-02-11T19:37:12.956Z,3.30
2023-02-11T19:39:42.455Z,3.60
2023-02-11T19:42:11.613Z,3.00
2023-02-11T19:44:39.877Z,3.20
2023-02-11T19:47:10.482Z,3.40
2023-02-11T19:49:38.795Z,3.90
2023-02-11T19:52:07.039Z,3.20
2023-02-11T19:54:35.262Z,3.30
2023-02-11T19:57:03.665Z,3.60
2023-02-11T19:59:31.898Z,3.90
2023-02-11T20:02:01.668Z,3.70
2023-02-11T20:04:32.384Z,4.10
2023-02-11T20:07:00.727Z,3.90
2023-02-11T20:09:31.268Z,3.40
2023-02-11T20:11:59.867Z,3.50
2023-02-11T20:14:28.351Z,4.00
2023-02-11T20:16:56.614Z,3.70
2023-02-11T20:19:24.952Z,3.50
2023-02-11T20:21:56.022Z,3.70
2023-02-11T20:24:25.394Z,3.40
2023-02-11T20:26:57.878Z,3.90
2023-02-11T20:29:26.348Z,3.90
2023-02-11T20:31:55.038Z,3.90
2023-02-11T20:34:25.237Z,3.50
2023-02-11T20:36:54.350Z,4.00
2023-02-11T20:39:24.504Z,4.30
2023-02-11T20:41:54.146Z,4.10
2023-02-11T20:44:23.296Z,4.70
2023-02-11T20:46:54.077Z,4.20
2023-02-11T20:49:24.552Z,5.40
2023-02-11T20:51:54.324Z,6.10
2023-02-11T20:54:24.370Z,6.00
2023-02-11T20:56:54.170Z,6.40
2023-02-11T20:59:23.371Z,7.00
2023-02-11T21:01:55.563Z,7.60
2023-02-11T21:04:27.646Z,7.50
2023-02-11T21:06:58.698Z,7.90
2023-02-11T21:09:31.457Z,8.70
2023-02-11T21:12:00.713Z,8.80
2023-02-11T21:14:29.592Z,8.80
2023-02-11T21:16:58.191Z,9.10
2023-02-11T21:19:26.997Z,7.10
2023-02-11T21:21:57.456Z,6.40
2023-02-11T21:24:25.753Z,6.20
2023-02-11T21:26:55.547Z,5.30
2023-02-11T21:29:23.877Z,5.30
2023-02-11T21:31:52.201Z,5.70
2023-02-11T21:34:20.980Z,4.60
2023-02-11T21:36:51.407Z,5.50
2023-02-11T21:39:20.496Z,5.70
2023-02-11T21:41:49.099Z,6.20
2023-02-11T21:44:17.502Z,5.80
2023-02-11T21:46:45.817Z,6.20
2023-02-11T21:49:14.218Z,5.50
2023-02-11T21:51:42.967Z,6.60
2023-02-11T21:54:11.775Z,6.20
2023-02-11T21:56:40.843Z,5.40
2023-02-11T21:59:13.876Z,4.40
2023-02-11T22:01:42.097Z,5.40
2023-02-11T22:04:10.397Z,5.50
2023-02-11T22:06:38.968Z,5.10
2023-02-11T22:09:09.945Z,6.00
2023-02-11T22:11:38.350Z,5.20
2023-02-11T22:14:06.633Z,5.30
2023-02-11T22:16:35.047Z,5.10
2023-02-11T22:19:03.859Z,5.20
2023-02-11T22:21:32.089Z,4.60
2023-02-11T22:24:00.324Z,5.50
2023-02-11T22:26:29.064Z,5.80
2023-02-11T22:28:57.700Z,5.50
2023-02-11T22:31:29.924Z,5.80
2023-02-11T22:33:58.898Z,6.20
2023-02-11T22:36:33.947Z,6.00
2023-02-11T22:39:08.253Z,5.30
2023-02-11T22:41:40.935Z,4.90
2023-02-11T22:44:09.784Z,5.40
2023-02-11T22:46:38.834Z,5.50
2023-02-11T22:49:07.623Z,5.90
2023-02-11T22:51:36.132Z,6.50
2023-02-11T22:54:06.824Z,6.30
2023-02-11T22:56:35.428Z,7.80
2023-02-11T22:59:09.351Z,8.10
2023-02-11T23:01:37.917Z,7.50
2023-02-11T23:04:08.720Z,7.60
2023-02-11T23:06:36.968Z,6.70
2023-02-11T23:09:08.047Z,5.80
2023-02-11T23:11:36.793Z,6.10
2023-02-11T23:14:05.613Z,6.50
2023-02-11T23:16:34.916Z,5.40
2023-02-11T23:19:08.551Z,5.10
2023-02-11T23:21:39.293Z,5.30
2023-02-11T23:24:12.011Z,6.10
2023-02-11T23:26:42.448Z,5.20
2023-02-11T23:29:10.922Z,5.00
2023-02-11T23:31:41.029Z,4.90
2023-02-11T23:34:10.097Z,6.60
2023-02-11T23:36:38.650Z,5.50
2023-02-11T23:39:06.854Z,4.90
2023-02-11T23:41:35.134Z,7.00
2023-02-11T23:44:03.428Z,7.30
2023-02-11T23:46:31.809Z,7.50
2023-02-11T23:49:00.364Z,7.20
2023-02-11T23:51:28.773Z,6.40
2023-02-11T23:53:57.047Z,6.70
2023-02-11T23:56:28.405Z,5.50
2023-02-11T23:58:58.532Z,4.60
